KEYW/EYW METAR and TAF weather

Enter ICAO airport designator
Station Type Date Time Source
KEYW METAR 2019/10/21 01:53 UTC NOAA

KEYW 210153Z AUTO 14004KT 10SM CLR 29/25 A2998 RMK AO2 SLP151 T02890250


Station Type Date Time Source
KEYW Decoded METAR 2019/10/21 01:53 UTC NOAA

KEY WEST INTERNATIONAL AIRPORT , FL, United States (KEYW) 24-33N 81-46W 5M
Oct 20, 2019 - 09:53 PM EDT / 2019.10.21 0153 UTC
Wind: from the SE (140 degrees) at 5 MPH (4 KT):0
Visibility: 10 mile(s):0
Sky conditions: clear
Temperature: 84.0 F (28.9 C)
Dew Point: 77.0 F (25.0 C)
Relative Humidity: 79%
Pressure (altimeter): 29.98 in. Hg (1015 hPa)
ob: KEYW 210153Z AUTO 14004KT 10SM CLR 29/25 A2998 RMK AO2 SLP151 T02890250
cycle: 2

Station Type Date Time Source
KEYW TAF 2019/10/20 23:59 UTC NOAA

TAF
AMD KEYW 202259Z 2023/2118 VRB04KT P6SM FEW020
FM211100 14007KT P6SM FEW020

Example: see airport list